Date,TemperatureHighF,TemperatureAvgF,TemperatureLowF,DewpointHighF,DewpointAvgF,DewpointLowF,HumidityHigh,HumidityAvg,HumidityLow,PressureMaxIn,PressureMinIn,WindSpeedMaxMPH,WindSpeedAvgMPH,GustSpeedMaxMPH,PrecipitationSumIn
2013-6-1,66,62,58,-100,-100,-100,0,0,100,0.00,40.00,0,-999,0,0.00
2013-6-2,63,60,58,-100,-100,-100,0,0,100,0.00,40.00,0,-999,0,0.00
2013-6-3,65,61,56,-100,-100,-100,0,0,100,0.00,40.00,0,-999,0,0.00
2013-6-4,65,60,57,-100,-100,-100,0,0,100,0.00,40.00,0,-999,0,0.00
2013-6-5,63,57,52,-100,-100,-100,0,0,100,0.00,40.00,0,-999,0,0.00
2013-6-6,62,58,54,-100,-100,-100,0,0,100,0.00,40.00,0,-999,0,0.00
2013-6-7,65,58,55,-100,-100,-100,0,0,100,0.00,40.00,0,-999,0,0.00
2013-6-8,61,59,57,-100,-100,-100,0,0,100,0.00,40.00,0,-999,0,0.00
2013-6-9,61,59,57,-100,-100,-100,0,0,100,0.00,40.00,0,-999,0,0.00
2013-6-10,69,63,58,-100,-100,-100,0,0,100,0.00,40.00,0,-999,0,0.00
2013-6-11,69,61,55,-100,-100,-100,0,0,100,0.00,40.00,0,-999,0,0.00
2013-6-12,63,59,57,-100,-100,-100,0,0,100,0.00,40.00,0,-999,0,0.00
2013-6-13,65,61,57,-100,-100,-100,0,0,100,0.00,40.00,0,-999,0,0.00
2013-6-14,66,60,52,-100,-100,-100,0,0,100,0.00,40.00,0,-999,0,0.00
2013-6-15,65,59,55,-100,-100,-100,0,0,100,0.00,40.00,0,-999,0,0.00
2013-6-16,65,61,57,-100,-100,-100,0,0,100,0.00,40.00,0,-999,0,0.00
2013-6-17,66,61,54,-100,-100,-100,0,0,100,0.00,40.00,0,-999,0,0.00
2013-6-18,67,61,53,-100,-100,-100,0,0,100,0.00,40.00,0,-999,0,0.00
2013-6-19,72,61,51,-100,-100,-100,0,0,100,0.00,40.00,0,-999,0,0.00
2013-6-20,69,59,51,-100,-100,-100,0,0,100,0.00,40.00,0,-999,0,0.00
2013-6-22,68,64,58,-100,-100,-100,0,0,100,0.00,40.00,0,-999,0,0.00
2013-6-23,65,61,56,-100,-100,-100,0,0,100,0.00,40.00,0,-999,0,0.00
2013-6-24,67,62,54,-100,-100,-100,0,0,100,0.00,40.00,0,-999,0,0.00
2013-6-25,65,62,58,-100,-100,-100,0,0,100,0.00,40.00,0,-999,0,0.00
2013-6-26,72,64,58,-100,-100,-100,0,0,100,0.00,40.00,0,-999,0,0.00
2013-6-27,76,66,61,-100,-100,-100,0,0,100,0.00,40.00,0,-999,0,0.00
2013-6-28,75,66,58,-100,-100,-100,0,0,100,0.00,40.00,0,-999,0,0.00
2013-6-29,77,71,59,-100,-100,-100,0,0,100,0.00,40.00,0,-999,0,0.00
2013-6-30,79,69,62,-100,-100,-100,0,0,100,0.00,40.00,0,-999,0,0.00